createdAt,value
2016-05-27T00:00:40.356Z,21.46
2016-05-27T00:01:40.358Z,21.41
2016-05-27T00:02:40.376Z,21.4
2016-05-27T00:03:40.223Z,21.34
2016-05-27T00:04:39.945Z,21.38
2016-05-27T00:05:39.994Z,21.36
2016-05-27T00:06:40.153Z,21.33
2016-05-27T00:07:40.359Z,21.36
2016-05-27T00:08:40.392Z,21.37
2016-05-27T00:09:40.145Z,21.37
2016-05-27T00:10:40.555Z,21.33
2016-05-27T00:11:40.557Z,21.37
2016-05-27T00:12:40.357Z,21.31
2016-05-27T00:13:40.343Z,21.34
2016-05-27T00:14:40.206Z,21.36
2016-05-27T00:15:40.349Z,21.33
2016-05-27T00:16:40.132Z,21.31
2016-05-27T00:17:39.932Z,21.22
2016-05-27T00:18:40.716Z,21.36
2016-05-27T00:19:39.985Z,21.3
2016-05-27T00:20:40.144Z,21.3
2016-05-27T00:21:40.177Z,21.23
2016-05-27T00:22:40.539Z,21.27
2016-05-27T00:23:40.120Z,21.3
2016-05-27T00:24:40.343Z,21.3
2016-05-27T00:25:40.188Z,21.28
2016-05-27T00:26:40.332Z,21.22
2016-05-27T00:27:39.975Z,21.25
2016-05-27T00:28:40.337Z,21.21
2016-05-27T00:29:40.542Z,21.28
2016-05-27T00:30:39.920Z,21.19
2016-05-27T00:31:40.329Z,21.15
2016-05-27T00:32:40.161Z,21.18
2016-05-27T00:33:40.334Z,21.22
2016-05-27T00:34:40.119Z,21.15
2016-05-27T00:35:40.324Z,21.16
2016-05-27T00:36:40.374Z,21.21
2016-05-27T00:37:40.314Z,21.15
2016-05-27T00:38:40.317Z,21.16
2016-05-27T00:39:40.319Z,21.19
2016-05-27T00:40:40.322Z,21.19
2016-05-27T00:41:40.528Z,21.18
2016-05-27T00:42:40.312Z,21.21
2016-05-27T00:43:40.018Z,21.21
2016-05-27T00:44:39.911Z,21.21
2016-05-27T00:45:40.164Z,21.18
2016-05-27T00:46:40.104Z,21.03
2016-05-27T00:47:40.201Z,21.18
2016-05-27T00:48:40.687Z,21.21
2016-05-27T00:49:40.128Z,21.04
2016-05-27T00:50:40.521Z,21.04
2016-05-27T00:51:40.305Z,21.06
2016-05-27T00:52:40.151Z,21.04
2016-05-27T00:53:40.513Z,21.01
2016-05-27T00:54:40.516Z,21.04
2016-05-27T00:55:40.300Z,21.01
2016-05-27T00:56:39.896Z,21.03
2016-05-27T00:57:40.306Z,21.04
2016-05-27T00:58:40.105Z,21.04
2016-05-27T00:59:40.296Z,20.97
2016-05-27T01:00:40.095Z,20.96
2016-05-27T01:01:40.144Z,20.98
2016-05-27T01:02:40.492Z,20.91
2016-05-27T01:03:40.306Z,20.97
2016-05-27T01:04:39.887Z,20.93
2016-05-27T01:05:40.295Z,20.94
2016-05-27T01:06:40.361Z,21
2016-05-27T01:07:40.505Z,20.98
2016-05-27T01:08:40.491Z,20.96
2016-05-27T01:09:40.291Z,20.98
2016-05-27T01:10:40.496Z,20.97
2016-05-27T01:11:40.093Z,20.97
2016-05-27T01:12:40.127Z,20.98
2016-05-27T01:13:39.927Z,20.93
2016-05-27T01:14:40.086Z,20.94
2016-05-27T01:15:40.276Z,20.98
2016-05-27T01:16:40.279Z,20.86
2016-05-27T01:17:40.282Z,20.94
2016-05-27T01:18:40.097Z,20.96
2016-05-27T01:19:40.490Z,20.96
2016-05-27T01:20:40.071Z,20.93
2016-05-27T01:21:40.073Z,20.82
2016-05-27T01:22:40.280Z,20.86
2016-05-27T01:23:40.062Z,20.83
2016-05-27T01:24:40.096Z,20.9
2016-05-27T01:25:40.068Z,20.82
2016-05-27T01:26:40.274Z,20.91
2016-05-27T01:27:40.090Z,20.91
2016-05-27T01:28:40.468Z,20.82
2016-05-27T01:29:40.454Z,20.83
2016-05-27T01:30:40.082Z,20.81
2016-05-27T01:31:40.256Z,20.82
2016-05-27T01:32:40.072Z,20.79
2016-05-27T01:33:40.153Z,20.85
2016-05-27T01:34:40.453Z,20.86
2016-05-27T01:35:40.048Z,20.82
2016-05-27T01:36:40.253Z,20.78
2016-05-27T01:37:40.461Z,20.81
2016-05-27T01:38:39.884Z,20.82
2016-05-27T01:39:39.887Z,20.83
2016-05-27T01:40:40.452Z,20.81
2016-05-27T01:41:40.252Z,20.79
2016-05-27T01:42:40.239Z,20.79
2016-05-27T01:43:40.039Z,20.81
2016-05-27T01:44:40.041Z,20.78
2016-05-27T01:45:40.435Z,20.78
2016-05-27T01:46:40.235Z,20.79
2016-05-27T01:47:40.033Z,20.78
2016-05-27T01:48:40.443Z,20.78
2016-05-27T01:49:40.026Z,20.72
2016-05-27T01:50:40.048Z,20.72
2016-05-27T01:51:40.132Z,20.68
2016-05-27T01:52:39.873Z,20.76
2016-05-27T01:53:40.520Z,20.72
2016-05-27T01:54:40.321Z,20.76
2016-05-27T01:55:39.925Z,20.75
2016-05-27T01:56:39.918Z,20.67
2016-05-27T01:57:40.538Z,20.67
2016-05-27T01:58:40.345Z,20.71
2016-05-27T01:59:40.196Z,20.76
2016-05-27T02:00:40.359Z,20.64
2016-05-27T02:01:40.349Z,20.66
2016-05-27T02:02:40.353Z,20.67
2016-05-27T02:03:40.390Z,20.74
2016-05-27T02:04:40.552Z,20.71
2016-05-27T02:05:40.555Z,20.64
2016-05-27T02:06:40.152Z,20.67
2016-05-27T02:07:39.938Z,20.67
2016-05-27T02:08:39.957Z,20.66
2016-05-27T02:09:40.350Z,20.66
2016-05-27T02:10:39.948Z,20.64
2016-05-27T02:11:40.356Z,20.58
2016-05-27T02:12:40.344Z,20.66
2016-05-27T02:13:40.363Z,20.51
2016-05-27T02:14:40.193Z,20.61
2016-05-27T02:15:40.180Z,20.64
2016-05-27T02:16:40.371Z,20.53
2016-05-27T02:17:40.186Z,20.56
2016-05-27T02:18:40.314Z,20.57
2016-05-27T02:19:40.552Z,20.51
2016-05-27T02:20:40.132Z,20.54
2016-05-27T02:21:39.978Z,20.57
2016-05-27T02:22:40.340Z,20.54
2016-05-27T02:23:40.187Z,20.57
2016-05-27T02:24:40.533Z,20.51
2016-05-27T02:25:40.332Z,20.58
2016-05-27T02:26:40.320Z,20.51
2016-05-27T02:27:40.540Z,20.48
2016-05-27T02:28:40.325Z,20.53
2016-05-27T02:29:40.328Z,20.6
2016-05-27T02:30:40.518Z,20.51
2016-05-27T02:31:40.520Z,20.44
2016-05-27T02:32:40.523Z,20.48
2016-05-27T02:33:40.525Z,20.44
2016-05-27T02:34:39.935Z,20.44
2016-05-27T02:35:40.312Z,20.41
2016-05-27T02:36:40.315Z,20.57
2016-05-27T02:37:39.958Z,20.38
2016-05-27T02:38:40.306Z,20.46
2016-05-27T02:39:40.292Z,20.46
2016-05-27T02:40:40.310Z,20.42
2016-05-27T02:41:40.297Z,20.42
2016-05-27T02:42:40.503Z,20.42
2016-05-27T02:43:40.303Z,20.27
2016-05-27T02:44:40.103Z,20.44
2016-05-27T02:45:40.355Z,20.4
2016-05-27T02:46:40.295Z,20.34
2016-05-27T02:47:40.344Z,20.38
2016-05-27T02:48:40.519Z,20.38
2016-05-27T02:49:40.491Z,20.35
2016-05-27T02:50:40.072Z,20.25
2016-05-27T02:51:40.293Z,20.35
2016-05-27T02:52:40.280Z,20.32
2016-05-27T02:53:40.283Z,20.3
2016-05-27T02:54:40.285Z,20.34
2016-05-27T02:55:40.132Z,20.26
2016-05-27T02:56:40.479Z,20.35
2016-05-27T02:57:40.278Z,20.29
2016-05-27T02:58:40.078Z,20.27
2016-05-27T02:59:40.127Z,20.25
2016-05-27T03:00:40.115Z,20.25
2016-05-27T03:01:39.712Z,20.25
2016-05-27T03:02:40.260Z,20.25
2016-05-27T03:03:40.482Z,20.29
2016-05-27T03:04:40.265Z,20.25
2016-05-27T03:05:40.472Z,20.3
2016-05-27T03:06:40.256Z,20.25
2016-05-27T03:07:40.259Z,20.23
2016-05-27T03:08:39.855Z,20.3
2016-05-27T03:09:40.045Z,20.3
2016-05-27T03:10:40.267Z,20.32
2016-05-27T03:11:39.847Z,20.32
2016-05-27T03:12:40.053Z,20.2
2016-05-27T03:13:40.039Z,20.23
2016-05-27T03:14:40.247Z,20.23
2016-05-27T03:15:40.249Z,20.29
2016-05-27T03:16:40.048Z,20.23
2016-05-27T03:17:40.472Z,20.26
2016-05-27T03:18:40.460Z,20.27
2016-05-27T03:19:39.885Z,20.2
2016-05-27T03:20:40.231Z,20.22
2016-05-27T03:21:40.233Z,20.22
2016-05-27T03:22:40.033Z,20.19
2016-05-27T03:23:40.224Z,20.22
2016-05-27T03:24:39.866Z,20.25
2016-05-27T03:25:40.276Z,20.18
2016-05-27T03:26:40.215Z,20.2
2016-05-27T03:27:40.015Z,20.26
2016-05-27T03:28:40.018Z,20.18
2016-05-27T03:29:40.208Z,20.26
2016-05-27T03:30:40.226Z,20.23
2016-05-27T03:31:40.026Z,20.2
2016-05-27T03:32:40.216Z,20.16
2016-05-27T03:33:40.422Z,20.08
2016-05-27T03:34:40.050Z,20.19
2016-05-27T03:35:40.021Z,20.11
2016-05-27T03:36:40.211Z,20.08
2016-05-27T03:37:40.401Z,20.07
2016-05-27T03:38:40.217Z,20.1
2016-05-27T03:39:40.203Z,20.08
2016-05-27T03:40:40.191Z,20.1
2016-05-27T03:41:40.037Z,20.11
2016-05-27T03:42:39.993Z,20.11
2016-05-27T03:43:39.980Z,20.1
2016-05-27T03:44:39.983Z,20.08
2016-05-27T03:45:40.189Z,20.08
2016-05-27T03:46:40.191Z,20.08
2016-05-27T03:47:40.194Z,20.08
2016-05-27T03:48:40.088Z,20.08
2016-05-27T03:49:40.246Z,20.1
2016-05-27T03:50:40.014Z,20.02
2016-05-27T03:51:40.392Z,20.07
2016-05-27T03:52:39.973Z,20.07
2016-05-27T03:53:40.179Z,20.1
2016-05-27T03:54:40.010Z,20.07
2016-05-27T03:55:40.387Z,20
2016-05-27T03:56:39.765Z,20.01
2016-05-27T03:57:40.158Z,20.05
2016-05-27T03:58:39.973Z,20.05
2016-05-27T03:59:40.163Z,20.07
2016-05-27T04:00:40.354Z,20.04
2016-05-27T04:01:40.153Z,20.11
2016-05-27T04:02:40.156Z,20.01
2016-05-27T04:03:40.581Z,20.02
2016-05-27T04:04:40.162Z,20.04
2016-05-27T04:05:40.148Z,20.12
2016-05-27T04:06:39.979Z,20
2016-05-27T04:07:39.951Z,20
2016-05-27T04:08:40.156Z,20.04
2016-05-27T04:09:39.784Z,19.93
2016-05-27T04:10:39.990Z,20.05
2016-05-27T04:11:40.134Z,20.04
2016-05-27T04:12:40.136Z,20.02
2016-05-27T04:13:40.123Z,20.04
2016-05-27T04:14:40.125Z,20.01
2016-05-27T04:15:40.128Z,20.12
2016-05-27T04:16:39.928Z,20.02
2016-05-27T04:17:40.134Z,19.93
2016-05-27T04:18:39.918Z,19.97
2016-05-27T04:19:40.124Z,19.93
2016-05-27T04:20:40.111Z,19.98
2016-05-27T04:21:40.316Z,19.98
2016-05-27T04:22:40.319Z,19.95
2016-05-27T04:23:40.119Z,19.93
2016-05-27T04:24:39.902Z,19.98
2016-05-27T04:25:39.922Z,19.95
2016-05-27T04:26:39.908Z,19.92
2016-05-27T04:27:40.160Z,20
2016-05-27T04:28:39.913Z,19.9
2016-05-27T04:29:39.885Z,19.92
2016-05-27T04:30:39.700Z,19.92
2016-05-27T04:31:40.312Z,20.01
2016-05-27T04:32:40.096Z,19.97
2016-05-27T04:33:40.301Z,19.9
2016-05-27T04:34:40.414Z,19.92
2016-05-27T04:35:39.901Z,19.9
2016-05-27T04:36:40.091Z,19.86
2016-05-27T04:37:40.281Z,19.86
2016-05-27T04:38:40.284Z,19.92
2016-05-27T04:39:39.881Z,19.9
2016-05-27T04:40:40.070Z,20
2016-05-27T04:41:40.073Z,20.07
2016-05-27T04:42:39.670Z,19.9
2016-05-27T04:43:40.079Z,19.92
2016-05-27T04:44:39.659Z,19.92
2016-05-27T04:45:40.272Z,19.93
2016-05-27T04:46:40.056Z,19.92
2016-05-27T04:47:40.058Z,19.8
2016-05-27T04:48:40.295Z,19.95
2016-05-27T04:49:39.860Z,19.87
2016-05-27T04:50:40.050Z,19.85
2016-05-27T04:51:39.710Z,20
2016-05-27T04:52:40.056Z,19.93
2016-05-27T04:53:39.855Z,19.97
2016-05-27T04:54:39.905Z,19.95
2016-05-27T04:55:40.049Z,19.97
2016-05-27T04:56:39.691Z,19.95
2016-05-27T04:57:40.054Z,20
2016-05-27T04:58:40.041Z,19.97
2016-05-27T04:59:39.872Z,19.89
2016-05-27T05:00:39.827Z,19.95
2016-05-27T05:01:39.862Z,19.9
2016-05-27T05:02:40.020Z,19.97
2016-05-27T05:03:40.070Z,19.92
2016-05-27T05:04:39.870Z,19.86
2016-05-27T05:05:40.028Z,19.9
2016-05-27T05:06:40.031Z,19.79
2016-05-27T05:07:40.018Z,19.89
2016-05-27T05:08:40.021Z,19.92
2016-05-27T05:09:39.867Z,19.93
2016-05-27T05:10:39.808Z,19.8
2016-05-27T05:11:40.014Z,19.9
2016-05-27T05:12:39.798Z,19.9
2016-05-27T05:13:39.801Z,19.83
2016-05-27T05:14:40.022Z,19.87
2016-05-27T05:15:40.009Z,19.82
2016-05-27T05:16:39.995Z,19.93
2016-05-27T05:17:39.795Z,19.89
2016-05-27T05:18:41.001Z,19.86
2016-05-27T05:19:40.019Z,19.97
2016-05-27T05:20:39.991Z,19.87
2016-05-27T05:21:39.790Z,19.92
2016-05-27T05:22:40.199Z,19.9
2016-05-27T05:23:39.983Z,19.87
2016-05-27T05:24:39.830Z,19.89
2016-05-27T05:25:39.973Z,19.79
2016-05-27T05:26:40.179Z,19.85
2016-05-27T05:27:39.791Z,19.86
2016-05-27T05:28:39.982Z,19.89
2016-05-27T05:29:40.172Z,19.9
2016-05-27T05:30:40.173Z,19.75
2016-05-27T05:31:40.177Z,19.86
2016-05-27T05:32:40.180Z,19.85
2016-05-27T05:33:39.791Z,19.79
2016-05-27T05:34:39.810Z,19.82
2016-05-27T05:35:39.969Z,19.87
2016-05-27T05:36:39.956Z,19.87
2016-05-27T05:37:39.756Z,19.92
2016-05-27T05:38:39.962Z,19.86
2016-05-27T05:39:40.167Z,19.92
2016-05-27T05:40:39.592Z,19.89
2016-05-27T05:41:39.812Z,19.9
2016-05-27T05:42:40.145Z,19.85
2016-05-27T05:43:40.147Z,19.95
2016-05-27T05:44:40.149Z,19.97
2016-05-27T05:45:39.948Z,19.86
2016-05-27T05:46:40.155Z,19.85
2016-05-27T05:47:39.735Z,19.87
2016-05-27T05:48:39.925Z,19.95
2016-05-27T05:49:40.428Z,19.92
2016-05-27T05:50:40.134Z,19.92
2016-05-27T05:51:39.714Z,19.93
2016-05-27T05:52:39.921Z,19.98
2016-05-27T05:53:39.923Z,19.86
2016-05-27T05:54:39.723Z,19.89
2016-05-27T05:55:39.554Z,19.87
2016-05-27T05:56:39.713Z,19.86
2016-05-27T05:57:39.902Z,19.93
2016-05-27T05:58:39.702Z,19.85
2016-05-27T05:59:39.502Z,19.89
2016-05-27T06:00:39.911Z,19.89
2016-05-27T06:01:40.102Z,19.86
2016-05-27T06:02:39.901Z,19.86
2016-05-27T06:03:40.482Z,19.95
2016-05-27T06:04:40.093Z,19.95
2016-05-27T06:05:39.706Z,19.92
2016-05-27T06:06:39.677Z,19.9
2016-05-27T06:07:41.821Z,19.97
2016-05-27T06:08:39.885Z,19.92
2016-05-27T06:09:39.732Z,19.92
2016-05-27T06:10:39.673Z,19.98
2016-05-27T06:11:39.472Z,19.8
2016-05-27T06:12:41.989Z,19.98
2016-05-27T06:13:39.478Z,19.86
2016-05-27T06:14:39.714Z,19.86
2016-05-27T06:15:39.873Z,19.86
2016-05-27T06:16:39.453Z,19.95
2016-05-27T06:17:42.489Z,19.92
2016-05-27T06:18:40.522Z,19.95
2016-05-27T06:19:39.868Z,19.85
2016-05-27T06:20:39.715Z,19.87
2016-05-27T06:21:39.655Z,19.83
2016-05-27T06:22:43.533Z,19.92
2016-05-27T06:23:39.847Z,19.92
2016-05-27T06:24:39.897Z,19.86
2016-05-27T06:25:39.838Z,19.9
2016-05-27T06:26:39.637Z,19.85
2016-05-27T06:27:40.046Z,19.87
2016-05-27T06:28:39.674Z,19.87
2016-05-27T06:29:40.036Z,19.95
2016-05-27T06:30:39.476Z,19.89
2016-05-27T06:31:39.635Z,19.9
2016-05-27T06:32:40.029Z,19.87
2016-05-27T06:33:39.827Z,19.92
2016-05-27T06:34:39.487Z,19.93
2016-05-27T06:35:39.677Z,19.93
2016-05-27T06:36:39.835Z,19.98
2016-05-27T06:37:39.823Z,19.87
2016-05-27T06:38:39.623Z,19.9
2016-05-27T06:39:40.015Z,19.85
2016-05-27T06:40:40.035Z,19.9
2016-05-27T06:41:39.412Z,19.95
2016-05-27T06:42:39.820Z,19.97
2016-05-27T06:43:39.809Z,19.93
2016-05-27T06:44:39.248Z,19.9
2016-05-27T06:45:39.641Z,19.85
2016-05-27T06:46:40.019Z,19.92
2016-05-27T06:47:40.006Z,19.92
2016-05-27T06:48:39.087Z,19.93
2016-05-27T06:49:40.808Z,19.87
2016-05-27T06:50:39.795Z,19.93
2016-05-27T06:51:40.017Z,19.98
2016-05-27T06:52:39.988Z,19.97
2016-05-27T06:53:39.788Z,19.93
2016-05-27T06:54:39.775Z,19.95
2016-05-27T06:55:39.980Z,19.95
2016-05-27T06:56:39.984Z,19.9
2016-05-27T06:57:39.971Z,20
2016-05-27T06:58:39.614Z,19.9
2016-05-27T06:59:39.960Z,19.89
2016-05-27T07:00:39.618Z,19.97
2016-05-27T07:01:39.763Z,19.93
2016-05-27T07:02:39.766Z,19.92
2016-05-27T07:03:39.752Z,19.92
2016-05-27T07:04:42.145Z,19.92
2016-05-27T07:05:39.774Z,19.9
2016-05-27T07:06:39.401Z,19.98
2016-05-27T07:07:39.543Z,19.98
2016-05-27T07:08:39.938Z,19.89
2016-05-27T07:09:39.940Z,19.97
2016-05-27T07:10:39.740Z,19.93
2016-05-27T07:11:39.539Z,20.04
2016-05-27T07:12:39.745Z,19.93
2016-05-27T07:13:39.545Z,19.9
2016-05-27T07:14:39.734Z,19.98
2016-05-27T07:15:39.784Z,19.92
2016-05-27T07:16:39.725Z,19.9
2016-05-27T07:17:39.930Z,19.93
2016-05-27T07:18:39.996Z,19.97
2016-05-27T07:19:39.530Z,19.83
2016-05-27T07:20:39.923Z,19.9
2016-05-27T07:21:39.566Z,19.89
2016-05-27T07:22:39.710Z,19.87
2016-05-27T07:23:39.712Z,19.9
2016-05-27T07:24:41.043Z,19.92
2016-05-27T07:25:39.561Z,19.92
2016-05-27T07:26:39.705Z,19.9
2016-05-27T07:27:39.708Z,19.86
2016-05-27T07:28:39.491Z,19.92
2016-05-27T07:29:41.166Z,19.92
2016-05-27T07:30:39.716Z,19.9
2016-05-27T07:31:39.500Z,19.92
2016-05-27T07:32:39.893Z,19.89
2016-05-27T07:33:40.442Z,19.86
2016-05-27T07:34:39.539Z,19.9
2016-05-27T07:35:39.682Z,19.87
2016-05-27T07:36:39.888Z,19.92
2016-05-27T07:37:39.891Z,19.86
2016-05-27T07:38:39.877Z,19.89
2016-05-27T07:39:42.004Z,19.79
2016-05-27T07:40:39.477Z,19.95
2016-05-27T07:41:39.667Z,19.83
2016-05-27T07:42:39.732Z,19.97
2016-05-27T07:43:39.156Z,19.89
2016-05-27T07:44:39.707Z,19.83
2016-05-27T07:45:39.302Z,19.86
2016-05-27T07:46:39.509Z,19.86
2016-05-27T07:47:39.856Z,19.92
2016-05-27T07:48:39.670Z,19.89
2016-05-27T07:49:39.688Z,19.9
2016-05-27T07:50:39.645Z,19.97
2016-05-27T07:51:39.444Z,19.93
2016-05-27T07:52:39.836Z,19.92
2016-05-27T07:53:39.855Z,19.92
2016-05-27T07:54:42.608Z,19.89
2016-05-27T07:55:39.454Z,19.97
2016-05-27T07:56:39.441Z,19.9
2016-05-27T07:57:39.647Z,19.97
2016-05-27T07:58:39.431Z,20
2016-05-27T07:59:39.683Z,20.04
2016-05-27T08:00:39.844Z,19.9
2016-05-27T08:01:39.627Z,19.98
2016-05-27T08:02:39.629Z,19.9
2016-05-27T08:03:39.819Z,20
2016-05-27T08:04:39.869Z,19.93
2016-05-27T08:05:39.419Z,19.9
2016-05-27T08:06:39.843Z,19.92
2016-05-27T08:07:39.409Z,19.93
2016-05-27T08:08:39.817Z,19.95
2016-05-27T08:09:39.618Z,19.93
2016-05-27T08:10:39.401Z,19.93
2016-05-27T08:11:39.810Z,20.01
2016-05-27T08:12:39.656Z,20
2016-05-27T08:13:39.410Z,19.95
2016-05-27T08:14:39.803Z,19.98
2016-05-27T08:15:39.399Z,19.95
2016-05-27T08:16:39.386Z,19.98
2016-05-27T08:17:39.248Z,19.98
2016-05-27T08:18:39.798Z,19.95
2016-05-27T08:19:40.550Z,20.04
2016-05-27T08:20:39.428Z,20.12
2016-05-27T08:21:39.228Z,20
2016-05-27T08:22:39.589Z,20.12
2016-05-27T08:23:39.234Z,20.05
2016-05-27T08:24:39.595Z,20.1
2016-05-27T08:25:39.566Z,20.1
2016-05-27T08:26:39.366Z,20.05
2016-05-27T08:27:39.572Z,20.1
2016-05-27T08:28:39.216Z,20.15
2016-05-27T08:29:39.639Z,20.19
2016-05-27T08:30:39.596Z,20.23
2016-05-27T08:31:39.567Z,20.16
2016-05-27T08:32:39.194Z,20.18
2016-05-27T08:33:39.760Z,20.2
2016-05-27T08:34:42.560Z,20.19
2016-05-27T08:35:39.219Z,20.22
2016-05-27T08:36:39.346Z,20.26
2016-05-27T08:37:39.568Z,20.25
2016-05-27T08:38:39.538Z,20.22
2016-05-27T08:39:39.541Z,20.26
2016-05-27T08:40:39.763Z,20.26
2016-05-27T08:41:39.547Z,20.27
2016-05-27T08:42:39.549Z,20.26
2016-05-27T08:43:39.537Z,20.29
2016-05-27T08:44:39.352Z,20.25
2016-05-27T08:45:39.526Z,20.35
2016-05-27T08:46:39.732Z,20.35
2016-05-27T08:47:39.345Z,20.32
2016-05-27T08:48:39.722Z,20.34
2016-05-27T08:49:39.522Z,20.34
2016-05-27T08:50:39.540Z,20.32
2016-05-27T08:51:39.731Z,20.42
2016-05-27T08:52:39.718Z,20.38
2016-05-27T08:53:39.376Z,20.4
2016-05-27T08:54:39.332Z,20.4
2016-05-27T08:55:39.178Z,20.42
2016-05-27T08:56:39.181Z,20.38
2016-05-27T08:57:39.106Z,20.41
2016-05-27T08:58:39.296Z,20.53
2016-05-27T08:59:39.861Z,20.54
2016-05-27T09:00:39.707Z,20.61
2016-05-27T09:01:39.695Z,20.53
2016-05-27T09:02:39.541Z,20.51
2016-05-27T09:03:39.700Z,20.57
2016-05-27T09:04:39.422Z,20.54
2016-05-27T09:05:39.486Z,20.49
2016-05-27T09:06:39.333Z,20.57
2016-05-27T09:07:39.274Z,20.49
2016-05-27T09:08:39.276Z,20.54
2016-05-27T09:09:39.122Z,20.53
2016-05-27T09:10:39.485Z,20.57
2016-05-27T09:11:39.284Z,20.51
2016-05-27T09:12:39.537Z,20.51
2016-05-27T09:13:39.492Z,20.61
2016-05-27T09:14:39.261Z,20.61
2016-05-27T09:15:39.060Z,20.64
2016-05-27T09:16:39.265Z,20.63
2016-05-27T09:17:39.690Z,20.71
2016-05-27T09:18:39.319Z,20.66
2016-05-27T09:19:43.024Z,20.66
2016-05-27T09:20:39.058Z,20.66
2016-05-27T09:21:39.670Z,20.66
2016-05-27T09:22:39.453Z,20.72
2016-05-27T09:23:39.457Z,20.71
2016-05-27T09:24:39.054Z,20.83
2016-05-27T09:25:39.462Z,20.75
2016-05-27T09:26:39.043Z,20.79
2016-05-27T09:27:39.233Z,20.81
2016-05-27T09:28:39.298Z,20.79
2016-05-27T09:29:39.083Z,20.83
2016-05-27T09:30:39.241Z,20.78
2016-05-27T09:31:39.244Z,20.79
2016-05-27T09:32:39.091Z,20.88
2016-05-27T09:33:39.249Z,20.9
2016-05-27T09:34:39.518Z,20.94
2016-05-27T09:35:39.067Z,20.9
2016-05-27T09:36:39.445Z,20.91
2016-05-27T09:37:39.229Z,20.91
2016-05-27T09:38:39.466Z,20.94
2016-05-27T09:39:39.422Z,20.98
2016-05-27T09:40:39.237Z,20.98
2016-05-27T09:41:39.240Z,20.94
2016-05-27T09:42:39.274Z,20.96
2016-05-27T09:43:39.417Z,20.97
2016-05-27T09:44:39.466Z,21.01
2016-05-27T09:45:42.735Z,21.01
2016-05-27T09:46:39.206Z,21.04
2016-05-27T09:47:39.209Z,21
2016-05-27T09:48:39.212Z,21.04
2016-05-27T09:49:39.464Z,21.04
2016-05-27T09:50:39.420Z,21
2016-05-27T09:51:39.407Z,21
2016-05-27T09:52:39.628Z,21
2016-05-27T09:53:39.397Z,21.04
2016-05-27T09:54:38.993Z,21.03
2016-05-27T09:55:39.403Z,21.08
2016-05-27T09:56:39.436Z,21
2016-05-27T09:57:39.236Z,20.98
2016-05-27T09:58:39.191Z,21.04
2016-05-27T09:59:39.195Z,21.06
2016-05-27T10:00:39.588Z,21.01
2016-05-27T10:01:39.184Z,21.06
2016-05-27T10:02:39.171Z,21.06
2016-05-27T10:03:39.017Z,21.03
2016-05-27T10:04:39.301Z,21.03
2016-05-27T10:05:39.367Z,21.08
2016-05-27T10:06:39.386Z,21.08
2016-05-27T10:07:39.169Z,21.06
2016-05-27T10:08:38.812Z,21.06
2016-05-27T10:09:39.018Z,21.13
2016-05-27T10:10:39.379Z,21.11
2016-05-27T10:11:39.570Z,21.18
2016-05-27T10:12:39.386Z,21.18
2016-05-27T10:13:39.591Z,21.16
2016-05-27T10:14:39.360Z,21.19
2016-05-27T10:15:39.003Z,21.12
2016-05-27T10:16:39.006Z,21.23
2016-05-27T10:17:39.399Z,21.25
2016-05-27T10:18:39.199Z,21.28
2016-05-27T10:19:39.623Z,21.25
2016-05-27T10:20:39.360Z,21.28
2016-05-27T10:21:39.347Z,21.31
2016-05-27T10:22:38.787Z,21.34
2016-05-27T10:23:39.212Z,21.28
2016-05-27T10:24:39.559Z,21.34
2016-05-27T10:25:38.811Z,21.37
2016-05-27T10:26:39.189Z,21.38
2016-05-27T10:27:39.145Z,21.38
2016-05-27T10:28:39.553Z,21.45
2016-05-27T10:29:39.134Z,21.43
2016-05-27T10:30:39.137Z,21.51
2016-05-27T10:31:39.342Z,21.55
2016-05-27T10:32:39.533Z,21.46
2016-05-27T10:33:39.552Z,21.45
2016-05-27T10:34:39.147Z,21.52
2016-05-27T10:35:39.541Z,21.53
2016-05-27T10:36:39.138Z,21.55
2016-05-27T10:37:39.327Z,21.55
2016-05-27T10:38:39.128Z,21.49
2016-05-27T10:39:39.349Z,21.67
2016-05-27T10:40:39.132Z,21.66
2016-05-27T10:41:39.167Z,21.66
2016-05-27T10:42:39.326Z,21.68
2016-05-27T10:43:38.922Z,21.64
2016-05-27T10:44:39.535Z,21.67
2016-05-27T10:45:38.912Z,21.62
2016-05-27T10:46:39.321Z,21.64
2016-05-27T10:47:39.120Z,21.66
2016-05-27T10:48:39.529Z,21.67
2016-05-27T10:49:40.500Z,21.66
2016-05-27T10:50:39.534Z,21.62
2016-05-27T10:51:39.101Z,21.64
2016-05-27T10:52:39.103Z,21.64
2016-05-27T10:53:39.105Z,21.74
2016-05-27T10:54:39.311Z,21.71
2016-05-27T10:55:39.111Z,21.76
2016-05-27T10:56:39.357Z,21.73
2016-05-27T10:57:39.371Z,21.76
2016-05-27T10:58:39.196Z,21.73
2016-05-27T10:59:39.255Z,21.66
2016-05-27T11:00:39.018Z,21.71
2016-05-27T11:01:39.436Z,21.71
2016-05-27T11:02:39.448Z,21.66
2016-05-27T11:03:39.242Z,21.74
2016-05-27T11:04:39.784Z,21.67
2016-05-27T11:05:39.266Z,21.67
2016-05-27T11:06:39.303Z,21.77
2016-05-27T11:07:39.262Z,21.77
2016-05-27T11:08:39.471Z,21.82
2016-05-27T11:09:39.274Z,21.77
2016-05-27T11:10:40.515Z,21.7
2016-05-27T11:11:39.487Z,21.8
2016-05-27T11:12:38.913Z,21.86
2016-05-27T11:13:39.291Z,21.7
2016-05-27T11:14:39.280Z,21.8
2016-05-27T11:15:39.472Z,21.76
2016-05-27T11:16:39.522Z,21.78
2016-05-27T11:17:39.478Z,21.89
2016-05-27T11:18:39.277Z,21.92
2016-05-27T11:19:39.125Z,21.86
2016-05-27T11:20:39.471Z,21.89
2016-05-27T11:21:39.474Z,21.93
2016-05-27T11:22:39.555Z,21.9
2016-05-27T11:23:39.058Z,21.92
2016-05-27T11:24:39.468Z,21.97
2016-05-27T11:25:39.690Z,21.94
2016-05-27T11:26:39.677Z,22
2016-05-27T11:27:39.680Z,21.93
2016-05-27T11:28:39.307Z,22.04
2016-05-27T11:29:39.310Z,22.04
2016-05-27T11:30:39.468Z,22.02
2016-05-27T11:31:39.659Z,22.02
2016-05-27T11:32:39.458Z,22.07
2016-05-27T11:33:39.664Z,22
2016-05-27T11:34:39.058Z,22.05
2016-05-27T11:35:39.529Z,22.12
2016-05-27T11:36:39.453Z,22.08
2016-05-27T11:37:39.472Z,22.09
2016-05-27T11:38:39.240Z,22.07
2016-05-27T11:39:39.446Z,22.09
2016-05-27T11:40:39.449Z,22.08
2016-05-27T11:41:39.451Z,22.16
2016-05-27T11:42:39.657Z,22.16
2016-05-27T11:43:39.051Z,22.22
2016-05-27T11:44:39.444Z,22.26
2016-05-27T11:45:39.290Z,22.27
2016-05-27T11:46:39.653Z,22.2
2016-05-27T11:47:39.639Z,22.15
2016-05-27T11:48:39.455Z,22.3
2016-05-27T11:49:39.301Z,22.27
2016-05-27T11:50:39.460Z,22.24
2016-05-27T11:51:39.104Z,22.27
2016-05-27T11:52:39.434Z,22.3
2016-05-27T11:53:39.077Z,22.26
2016-05-27T11:54:39.236Z,22.29
2016-05-27T11:55:39.036Z,22.27
2016-05-27T11:56:39.038Z,22.27
2016-05-27T11:57:39.072Z,22.3
2016-05-27T11:58:39.435Z,22.38
2016-05-27T11:59:39.437Z,22.36
2016-05-27T12:00:39.066Z,22.41
2016-05-27T12:01:39.240Z,22.36
2016-05-27T12:02:39.024Z,22.38
2016-05-27T12:03:39.635Z,22.38
2016-05-27T12:04:40.123Z,22.38
2016-05-27T12:05:39.626Z,22.38
2016-05-27T12:06:39.472Z,22.41
2016-05-27T12:07:39.427Z,22.45
2016-05-27T12:08:38.868Z,22.45
2016-05-27T12:09:39.229Z,22.46
2016-05-27T12:10:39.218Z,22.46
2016-05-27T12:11:39.235Z,22.52
2016-05-27T12:12:39.223Z,22.49
2016-05-27T12:13:38.865Z,22.46
2016-05-27T12:14:39.228Z,22.45
2016-05-27T12:15:39.074Z,22.46
2016-05-27T12:16:39.420Z,22.57
2016-05-27T12:17:39.220Z,22.51
2016-05-27T12:18:39.613Z,22.52
2016-05-27T12:19:39.070Z,22.54
2016-05-27T12:20:39.416Z,22.57
2016-05-27T12:21:39.246Z,22.54
2016-05-27T12:22:39.422Z,22.59
2016-05-27T12:23:39.267Z,22.6
2016-05-27T12:24:39.442Z,22.59
2016-05-27T12:25:39.258Z,22.57
2016-05-27T12:26:39.400Z,22.6
2016-05-27T12:27:39.263Z,22.59
2016-05-27T12:28:39.468Z,22.7
2016-05-27T12:29:39.611Z,22.61
2016-05-27T12:30:39.208Z,22.73
2016-05-27T12:31:39.413Z,22.63
2016-05-27T12:32:39.619Z,22.61
2016-05-27T12:33:39.201Z,22.69
2016-05-27T12:34:39.907Z,22.7
2016-05-27T12:35:39.207Z,22.67
2016-05-27T12:36:39.224Z,22.69
2016-05-27T12:37:39.008Z,22.69
2016-05-27T12:38:39.215Z,22.67
2016-05-27T12:39:39.607Z,22.66
2016-05-27T12:40:39.220Z,22.63
2016-05-27T12:41:39.004Z,22.66
2016-05-27T12:42:39.412Z,22.67
2016-05-27T12:43:39.056Z,22.73
2016-05-27T12:44:39.198Z,22.7
2016-05-27T12:45:39.404Z,22.63
2016-05-27T12:46:39.611Z,22.7
2016-05-27T12:47:39.239Z,22.75
2016-05-27T12:48:39.195Z,22.67
2016-05-27T12:49:39.009Z,22.75
2016-05-27T12:50:39.262Z,22.78
2016-05-27T12:51:39.609Z,22.75
2016-05-27T12:52:39.252Z,22.71
2016-05-27T12:53:39.395Z,22.76
2016-05-27T12:54:39.366Z,22.71
2016-05-27T12:55:39.197Z,22.76
2016-05-27T12:56:39.403Z,22.73
2016-05-27T12:57:39.406Z,22.75